Terminal Aerodrome Forecast
Issued by NWS Los Angeles, CA

Home | Current Version | Previous Version | Text Only | Print | Product List | Glossary On
Versions: 1 2 3 4 5 6 7 8 9 10 11 12 13 14 15 16 17 18 19 20
555
FTUS46 KLOX 271722
TAFSMX
TAF
KSMX 271722Z 2718/2818 VRB03KT P6SM VCSH BKN040
     FM272000 30010KT P6SM BKN050 BKN150
     FM272200 30015G22KT P6SM BKN050 BKN150
     FM280200 32008KT P6SM SCT150
     FM280800 VRB03KT P6SM SCT150=

USA.gov is the U.S. government's official web portal to all federal, state and local government web resources and services.